createdAt,value
2018-06-15T00:02:25.186Z,13.10
2018-06-15T00:04:54.267Z,13.00
2018-06-15T00:07:22.734Z,12.90
2018-06-15T00:09:51.234Z,12.90
2018-06-15T00:12:19.737Z,12.90
2018-06-15T00:14:48.208Z,12.90
2018-06-15T00:17:16.653Z,12.90
2018-06-15T00:19:45.203Z,13.00
2018-06-15T00:22:13.676Z,13.00
2018-06-15T00:24:42.185Z,13.00
2018-06-15T00:27:10.737Z,13.00
2018-06-15T00:29:39.206Z,12.90
2018-06-15T00:32:07.735Z,12.80
2018-06-15T00:34:36.239Z,12.80
2018-06-15T00:37:04.707Z,12.80
2018-06-15T00:39:33.189Z,12.80
2018-06-15T00:42:01.677Z,12.70
2018-06-15T00:44:30.158Z,12.70
2018-06-15T00:46:58.902Z,12.60
2018-06-15T00:49:27.368Z,12.60
2018-06-15T00:51:55.822Z,12.50
2018-06-15T00:54:24.281Z,12.50
2018-06-15T00:57:04.036Z,12.40
2018-06-15T00:59:32.490Z,12.40
2018-06-15T01:02:00.994Z,12.30
2018-06-15T01:04:29.435Z,12.30
2018-06-15T01:06:58.010Z,12.20
2018-06-15T01:11:54.628Z,12.10
2018-06-15T01:14:23.133Z,12.20
2018-06-15T01:16:51.621Z,12.10
2018-06-15T01:19:20.129Z,12.10
2018-06-15T01:21:48.587Z,12.10
2018-06-15T01:24:17.041Z,12.00
2018-06-15T01:26:45.526Z,12.00
2018-06-15T01:29:14.000Z,11.90
2018-06-15T01:31:42.479Z,11.80
2018-06-15T01:34:10.916Z,11.80
2018-06-15T01:36:39.398Z,11.90
2018-06-15T01:39:08.978Z,11.90
2018-06-15T01:41:37.419Z,11.80
2018-06-15T01:44:06.145Z,11.80
2018-06-15T01:46:34.909Z,11.80
2018-06-15T01:49:03.426Z,11.80
2018-06-15T01:54:00.192Z,11.80
2018-06-15T01:56:28.844Z,11.90
2018-06-15T01:58:57.350Z,12.10
2018-06-15T02:01:25.964Z,12.10
2018-06-15T02:03:54.509Z,11.80
2018-06-15T02:06:22.987Z,11.80
2018-06-15T02:08:51.550Z,11.70
2018-06-15T02:11:20.015Z,11.70
2018-06-15T02:13:48.501Z,11.70
2018-06-15T02:16:16.959Z,11.70
2018-06-15T02:18:45.439Z,11.60
2018-06-15T02:21:13.911Z,11.60
2018-06-15T02:23:42.370Z,11.60
2018-06-15T02:26:10.894Z,11.60
2018-06-15T02:28:39.391Z,11.60
2018-06-15T02:31:07.873Z,11.60
2018-06-15T02:33:36.338Z,11.60
2018-06-15T02:36:04.828Z,11.60
2018-06-15T02:38:33.313Z,11.70
2018-06-15T02:41:01.783Z,11.60
2018-06-15T02:43:30.234Z,11.70
2018-06-15T02:45:58.806Z,11.70
2018-06-15T02:48:27.252Z,11.60
2018-06-15T02:50:55.735Z,11.60
2018-06-15T02:53:24.187Z,11.60
2018-06-15T02:55:52.802Z,11.60
2018-06-15T02:58:21.279Z,11.60
2018-06-15T03:00:49.763Z,11.60
2018-06-15T03:03:18.238Z,11.60
2018-06-15T03:05:46.726Z,11.60
2018-06-15T03:08:15.291Z,11.50
2018-06-15T03:10:43.784Z,11.50
2018-06-15T03:13:12.243Z,11.50
2018-06-15T03:15:40.711Z,11.50
2018-06-15T03:18:09.191Z,11.40
2018-06-15T03:20:37.718Z,11.40
2018-06-15T03:23:06.328Z,11.50
2018-06-15T03:25:34.786Z,11.50
2018-06-15T03:28:03.272Z,11.50
2018-06-15T03:30:31.737Z,11.50
2018-06-15T03:33:00.224Z,11.40
2018-06-15T03:35:28.698Z,11.40
2018-06-15T03:37:57.184Z,11.50
2018-06-15T03:40:25.774Z,11.40
2018-06-15T03:42:54.253Z,11.50
2018-06-15T03:45:22.724Z,11.50
2018-06-15T03:47:51.203Z,11.50
2018-06-15T03:50:19.889Z,11.50
2018-06-15T03:52:48.356Z,11.70
2018-06-15T03:55:16.839Z,11.70
2018-06-15T03:57:45.451Z,11.90
2018-06-15T04:00:13.936Z,11.80
2018-06-15T04:02:42.422Z,11.70
2018-06-15T04:05:11.006Z,11.60
2018-06-15T04:07:39.509Z,11.60
2018-06-15T04:10:09.043Z,11.60
2018-06-15T04:12:37.551Z,11.60
2018-06-15T04:15:06.035Z,11.60
2018-06-15T04:17:34.647Z,11.60
2018-06-15T04:20:03.104Z,11.60
2018-06-15T04:22:31.590Z,11.70
2018-06-15T04:25:00.438Z,11.70
2018-06-15T04:27:28.922Z,11.90
2018-06-15T04:29:57.380Z,11.90
2018-06-15T04:32:25.925Z,11.90
2018-06-15T04:34:54.476Z,12.00
2018-06-15T04:37:23.844Z,12.10
2018-06-15T04:39:52.307Z,12.10
2018-06-15T04:42:20.799Z,12.20
2018-06-15T04:44:49.255Z,12.20
2018-06-15T04:47:17.723Z,12.20
2018-06-15T04:49:46.166Z,12.20
2018-06-15T04:52:14.648Z,12.30
2018-06-15T04:54:43.114Z,12.50
2018-06-15T04:57:11.652Z,12.70
2018-06-15T04:59:40.143Z,12.80
2018-06-15T05:04:36.814Z,12.90
2018-06-15T05:07:05.563Z,12.90
2018-06-15T05:09:34.043Z,13.10
2018-06-15T05:12:02.513Z,13.20
2018-06-15T05:14:31.005Z,13.20
2018-06-15T05:16:59.727Z,13.30
2018-06-15T05:19:28.197Z,13.40
2018-06-15T05:21:56.777Z,13.40
2018-06-15T05:24:25.313Z,13.60
2018-06-15T05:26:53.762Z,13.60
2018-06-15T05:29:22.307Z,13.50
2018-06-15T05:31:50.784Z,13.60
2018-06-15T05:34:19.282Z,13.60
2018-06-15T05:36:47.748Z,13.70
2018-06-15T05:39:16.206Z,13.80
2018-06-15T05:41:44.836Z,13.80
2018-06-15T05:44:13.280Z,13.80
2018-06-15T05:46:41.779Z,14.00
2018-06-15T05:49:10.260Z,14.00
2018-06-15T05:51:38.783Z,14.00
2018-06-15T05:54:07.256Z,14.00
2018-06-15T05:56:35.763Z,14.20
2018-06-15T05:59:04.243Z,14.20
2018-06-15T06:01:32.784Z,14.30
2018-06-15T06:04:01.322Z,14.40
2018-06-15T06:06:29.799Z,14.50
2018-06-15T06:08:58.243Z,14.60
2018-06-15T06:11:26.783Z,14.60
2018-06-15T06:13:55.230Z,14.50
2018-06-15T06:16:23.719Z,14.50
2018-06-15T06:18:52.179Z,14.60
2018-06-15T06:21:20.934Z,14.70
2018-06-15T06:23:49.487Z,14.80
2018-06-15T06:26:17.973Z,14.90
2018-06-15T06:28:46.448Z,15.20
2018-06-15T06:31:14.943Z,15.50
2018-06-15T06:33:43.414Z,15.40
2018-06-15T06:36:12.171Z,15.20
2018-06-15T06:38:40.676Z,15.20
2018-06-15T06:41:09.216Z,15.40
2018-06-15T06:43:37.723Z,15.40
2018-06-15T06:46:06.200Z,15.60
2018-06-15T06:48:34.735Z,16.00
2018-06-15T06:51:03.236Z,16.10
2018-06-15T06:53:31.855Z,16.70
2018-06-15T06:56:00.339Z,16.90
2018-06-15T06:58:28.827Z,17.40
2018-06-15T07:00:57.339Z,17.70
2018-06-15T07:03:25.834Z,18.20
2018-06-15T07:05:54.531Z,19.00
2018-06-15T07:08:23.037Z,19.90
2018-06-15T07:10:51.535Z,19.90
2018-06-15T07:13:19.967Z,20.20
2018-06-15T07:15:48.437Z,20.70
2018-06-15T07:18:16.927Z,20.80
2018-06-15T07:20:45.405Z,20.80
2018-06-15T07:23:13.924Z,20.70
2018-06-15T07:25:42.469Z,21.00
2018-06-15T07:28:10.923Z,21.40
2018-06-15T07:30:39.453Z,22.00
2018-06-15T07:33:07.930Z,21.60
2018-06-15T07:35:36.391Z,21.40
2018-06-15T07:38:05.127Z,21.50
2018-06-15T07:40:33.582Z,22.10
2018-06-15T07:43:02.085Z,21.90
2018-06-15T07:45:30.546Z,21.70
2018-06-15T07:47:59.030Z,21.90
2018-06-15T07:50:27.492Z,22.30
2018-06-15T07:52:55.971Z,22.30
2018-06-15T07:55:24.431Z,22.80
2018-06-15T07:57:53.074Z,23.60
2018-06-15T08:00:21.543Z,23.40
2018-06-15T08:02:50.371Z,23.60
2018-06-15T08:05:19.033Z,23.40
2018-06-15T08:07:47.488Z,23.80
2018-06-15T08:10:16.067Z,23.80
2018-06-15T08:12:44.488Z,23.10
2018-06-15T08:15:12.994Z,23.40
2018-06-15T08:17:41.444Z,24.40
2018-06-15T08:20:09.933Z,23.90
2018-06-15T08:22:38.815Z,23.80
2018-06-15T08:25:07.294Z,23.40
2018-06-15T08:27:36.098Z,23.30
2018-06-15T08:30:04.625Z,23.20
2018-06-15T08:32:33.085Z,23.20
2018-06-15T08:35:01.589Z,23.40
2018-06-15T08:37:30.049Z,22.70
2018-06-15T08:39:58.515Z,22.30
2018-06-15T08:42:26.965Z,22.20
2018-06-15T08:44:55.390Z,22.10
2018-06-15T08:47:23.867Z,21.70
2018-06-15T08:49:52.307Z,21.30
2018-06-15T08:52:20.767Z,21.20
2018-06-15T08:54:49.322Z,21.00
2018-06-15T08:57:17.847Z,21.00
2018-06-15T08:59:46.427Z,21.10
2018-06-15T09:02:14.865Z,20.80
2018-06-15T09:04:43.330Z,20.80
2018-06-15T09:07:11.780Z,21.80
2018-06-15T09:09:40.241Z,23.00
2018-06-15T09:12:08.734Z,24.50
2018-06-15T09:14:37.215Z,24.70
2018-06-15T09:17:06.044Z,24.90
2018-06-15T09:19:34.643Z,24.50
2018-06-15T09:22:03.313Z,25.00
2018-06-15T09:24:31.793Z,25.70
2018-06-15T09:27:00.256Z,26.50
2018-06-15T09:29:28.714Z,27.00
2018-06-15T09:31:57.254Z,26.80
2018-06-15T09:34:25.706Z,26.80
2018-06-15T09:36:54.276Z,26.80
2018-06-15T09:39:22.747Z,27.20
2018-06-15T09:41:51.190Z,27.60
2018-06-15T09:44:19.704Z,27.80
2018-06-15T09:46:48.138Z,28.60
2018-06-15T09:49:16.582Z,30.10
2018-06-15T09:51:45.045Z,30.30
2018-06-15T09:54:13.485Z,30.70
2018-06-15T09:56:41.956Z,31.40
2018-06-15T09:59:10.443Z,30.50
2018-06-15T10:01:38.948Z,30.50
2018-06-15T10:04:07.412Z,30.20
2018-06-15T10:06:35.869Z,30.10
2018-06-15T10:09:05.992Z,28.90
2018-06-15T10:11:34.499Z,29.00
2018-06-15T10:14:03.059Z,30.10
2018-06-15T10:16:31.560Z,29.80
2018-06-15T10:19:00.124Z,30.80
2018-06-15T10:21:28.624Z,30.00
2018-06-15T10:23:57.160Z,30.30
2018-06-15T10:26:25.632Z,30.60
2018-06-15T10:28:54.383Z,30.90
2018-06-15T10:31:22.966Z,30.30
2018-06-15T10:33:51.476Z,30.60
2018-06-15T10:38:48.109Z,32.50
2018-06-15T10:41:16.645Z,30.00
2018-06-15T10:43:45.150Z,31.10
2018-06-15T10:46:13.656Z,30.30
2018-06-15T10:48:42.275Z,29.00
2018-06-15T10:51:11.030Z,28.70
2018-06-15T10:53:39.511Z,27.70
2018-06-15T10:56:08.189Z,28.40
2018-06-15T10:58:36.700Z,28.50
2018-06-15T11:01:05.190Z,28.80
2018-06-15T11:03:33.667Z,28.90
2018-06-15T11:06:02.112Z,29.10
2018-06-15T11:08:30.614Z,29.20
2018-06-15T11:10:59.156Z,29.10
2018-06-15T11:13:27.800Z,29.00
2018-06-15T11:18:24.575Z,26.90
2018-06-15T11:20:53.139Z,26.40
2018-06-15T11:23:21.636Z,26.70
2018-06-15T11:25:50.297Z,26.70
2018-06-15T11:28:18.752Z,26.90
2018-06-15T11:30:47.380Z,26.90
2018-06-15T11:33:16.006Z,26.00
2018-06-15T11:35:44.522Z,25.50
2018-06-15T11:38:12.998Z,25.20
2018-06-15T11:40:41.468Z,25.50
2018-06-15T11:43:09.963Z,25.80
2018-06-15T11:45:38.448Z,25.70
2018-06-15T11:48:06.934Z,24.40
2018-06-15T11:50:35.439Z,23.70
2018-06-15T11:53:03.888Z,23.30
2018-06-15T11:55:32.367Z,23.00
2018-06-15T11:58:00.864Z,22.50
2018-06-15T12:00:29.708Z,22.60
2018-06-15T12:02:58.434Z,22.70
2018-06-15T12:05:26.915Z,22.70
2018-06-15T12:07:55.385Z,22.90
2018-06-15T12:10:23.847Z,23.50
2018-06-15T12:12:52.340Z,24.20
2018-06-15T12:15:22.737Z,23.90
2018-06-15T12:17:51.324Z,24.10
2018-06-15T12:20:19.805Z,24.30
2018-06-15T12:22:48.366Z,24.90
2018-06-15T12:25:16.866Z,24.90
2018-06-15T12:27:45.338Z,25.00
2018-06-15T12:30:13.840Z,24.70
2018-06-15T12:32:42.466Z,24.00
2018-06-15T12:35:11.021Z,24.20
2018-06-15T12:37:39.538Z,24.00
2018-06-15T12:40:08.024Z,23.90
2018-06-15T12:42:36.578Z,24.20
2018-06-15T12:45:05.087Z,23.30
2018-06-15T12:47:33.668Z,23.20
2018-06-15T12:50:02.141Z,23.50
2018-06-15T12:52:30.604Z,23.80
2018-06-15T12:54:59.148Z,24.30
2018-06-15T12:57:27.767Z,24.90
2018-06-15T12:59:56.320Z,24.40
2018-06-15T13:02:24.776Z,23.90
2018-06-15T13:04:53.259Z,23.80
2018-06-15T13:07:21.746Z,23.20
2018-06-15T13:09:50.235Z,23.20
2018-06-15T13:12:18.703Z,23.80
2018-06-15T13:14:47.138Z,24.00
2018-06-15T13:17:15.753Z,24.40
2018-06-15T13:19:44.271Z,24.60
2018-06-15T13:22:13.138Z,25.30
2018-06-15T13:24:41.686Z,25.40
2018-06-15T13:27:10.168Z,25.60
2018-06-15T13:29:38.627Z,25.60
2018-06-15T13:32:07.095Z,24.70
2018-06-15T13:34:35.584Z,25.00
2018-06-15T13:39:32.440Z,25.00
2018-06-15T13:42:01.091Z,25.30
2018-06-15T13:44:30.424Z,25.10
2018-06-15T13:46:59.645Z,24.70
2018-06-15T13:51:56.645Z,23.80
2018-06-15T13:54:25.288Z,23.50
2018-06-15T13:59:22.239Z,23.40
2018-06-15T14:04:19.422Z,24.20
2018-06-15T14:06:48.183Z,24.90
2018-06-15T14:09:16.807Z,25.30
2018-06-15T14:11:45.359Z,25.50
2018-06-15T14:14:14.359Z,25.30
2018-06-15T14:16:43.172Z,25.40
2018-06-15T14:19:11.656Z,25.00
2018-06-15T14:21:40.273Z,24.70
2018-06-15T14:24:08.883Z,24.30
2018-06-15T14:26:37.395Z,24.30
2018-06-15T14:29:05.923Z,24.60
2018-06-15T14:31:34.456Z,25.00
2018-06-15T14:34:03.016Z,24.90
2018-06-15T14:36:31.513Z,24.90
2018-06-15T14:38:59.987Z,24.60
2018-06-15T14:41:28.484Z,24.10
2018-06-15T14:43:57.026Z,23.80
2018-06-15T14:46:25.514Z,23.60
2018-06-15T14:48:54.211Z,23.70
2018-06-15T14:51:22.669Z,23.50
2018-06-15T14:53:51.164Z,23.50
2018-06-15T14:56:19.671Z,23.40
2018-06-15T14:58:48.243Z,23.40
2018-06-15T15:01:16.903Z,23.20
2018-06-15T15:03:45.467Z,23.60
2018-06-15T15:06:13.972Z,23.90
2018-06-15T15:08:42.609Z,24.20
2018-06-15T15:11:11.071Z,24.40
2018-06-15T15:13:39.565Z,24.40
2018-06-15T15:16:08.063Z,24.70
2018-06-15T15:18:36.595Z,24.80
2018-06-15T15:21:05.159Z,25.10
2018-06-15T15:23:33.642Z,25.10
2018-06-15T15:26:02.259Z,25.10
2018-06-15T15:28:30.808Z,25.00
2018-06-15T15:30:59.311Z,24.40
2018-06-15T15:33:27.800Z,23.70
2018-06-15T15:35:56.381Z,23.60
2018-06-15T15:38:24.860Z,23.30
2018-06-15T15:40:53.355Z,23.00
2018-06-15T15:43:21.925Z,22.50
2018-06-15T15:45:50.454Z,22.30
2018-06-15T15:48:19.118Z,22.00
2018-06-15T15:50:47.617Z,21.80
2018-06-15T15:53:16.118Z,21.70
2018-06-15T15:55:44.596Z,21.70
2018-06-15T15:58:13.069Z,21.80
2018-06-15T16:00:41.591Z,21.90
2018-06-15T16:03:10.066Z,21.90
2018-06-15T16:05:38.603Z,21.90
2018-06-15T16:08:07.127Z,21.90
2018-06-15T16:10:35.612Z,21.90
2018-06-15T16:13:04.112Z,21.70
2018-06-15T16:15:32.604Z,21.60
2018-06-15T16:18:01.203Z,21.50
2018-06-15T16:20:29.715Z,21.30
2018-06-15T16:22:58.247Z,21.10
2018-06-15T16:25:26.791Z,21.00
2018-06-15T16:30:23.556Z,20.90
2018-06-15T16:32:52.116Z,20.80
2018-06-15T16:35:20.635Z,20.80
2018-06-15T16:37:49.276Z,20.80
2018-06-15T16:40:17.854Z,21.10
2018-06-15T16:42:46.418Z,21.30
2018-06-15T16:45:14.896Z,21.40
2018-06-15T16:47:43.496Z,21.50
2018-06-15T16:50:11.976Z,21.70
2018-06-15T16:52:40.445Z,21.90
2018-06-15T16:55:09.026Z,22.20
2018-06-15T16:57:37.559Z,22.20
2018-06-15T17:00:06.140Z,22.20
2018-06-15T17:02:35.054Z,22.30
2018-06-15T17:05:03.594Z,22.30
2018-06-15T17:07:32.070Z,22.40
2018-06-15T17:10:00.524Z,22.70
2018-06-15T17:12:29.091Z,22.60
2018-06-15T17:14:57.641Z,22.60
2018-06-15T17:17:26.145Z,22.60
2018-06-15T17:19:54.630Z,22.20
2018-06-15T17:22:23.158Z,22.20
2018-06-15T17:24:51.644Z,22.40
2018-06-15T17:27:20.108Z,22.20
2018-06-15T17:29:48.620Z,22.10
2018-06-15T17:32:17.099Z,21.90
2018-06-15T17:34:45.718Z,21.80
2018-06-15T17:37:14.193Z,21.60
2018-06-15T17:39:42.665Z,21.40
2018-06-15T17:42:11.149Z,21.10
2018-06-15T17:44:39.670Z,21.00
2018-06-15T17:47:08.202Z,20.90
2018-06-15T17:49:36.719Z,20.60
2018-06-15T17:52:05.491Z,20.50
2018-06-15T17:54:34.016Z,20.40
2018-06-15T17:57:02.603Z,20.30
2018-06-15T17:59:31.297Z,20.20
2018-06-15T18:01:59.944Z,20.10
2018-06-15T18:04:28.539Z,20.10
2018-06-15T18:06:57.274Z,20.00
2018-06-15T18:09:25.938Z,20.00
2018-06-15T18:11:54.424Z,19.90
2018-06-15T18:14:22.940Z,19.90
2018-06-15T18:16:51.614Z,19.90
2018-06-15T18:19:20.205Z,19.80
2018-06-15T18:21:48.796Z,19.80
2018-06-15T18:24:17.260Z,19.80
2018-06-15T18:26:45.879Z,19.70
2018-06-15T18:29:14.338Z,19.70
2018-06-15T18:31:42.977Z,19.70
2018-06-15T18:34:11.455Z,19.60
2018-06-15T18:36:40.054Z,19.50
2018-06-15T18:39:11.811Z,19.40
2018-06-15T18:41:40.268Z,19.30
2018-06-15T18:44:09.167Z,19.30
2018-06-15T18:46:37.912Z,19.20
2018-06-15T18:49:06.923Z,19.00
2018-06-15T18:51:35.850Z,19.00
2018-06-15T18:54:04.457Z,18.90
2018-06-15T18:56:33.150Z,18.90
2018-06-15T18:59:01.900Z,18.80
2018-06-15T19:01:30.432Z,18.80
2018-06-15T19:03:58.895Z,18.60
2018-06-15T19:06:27.414Z,18.60
2018-06-15T19:08:55.975Z,18.60
2018-06-15T19:11:24.620Z,18.50
2018-06-15T19:13:53.098Z,18.40
2018-06-15T19:18:49.858Z,18.30
2018-06-15T19:21:18.400Z,18.20
2018-06-15T19:23:46.924Z,18.10
2018-06-15T19:26:15.508Z,18.00
2018-06-15T19:28:43.988Z,17.90
2018-06-15T19:33:40.727Z,17.70
2018-06-15T19:36:09.262Z,17.60
2018-06-15T19:38:37.743Z,17.50
2018-06-15T19:41:06.211Z,17.40
2018-06-15T19:43:34.762Z,17.30
2018-06-15T19:46:03.292Z,17.20
2018-06-15T19:48:31.795Z,17.20
2018-06-15T19:51:00.251Z,17.10
2018-06-15T19:53:28.819Z,17.00
2018-06-15T19:55:57.297Z,16.90
2018-06-15T19:58:25.877Z,16.90
2018-06-15T20:00:54.433Z,16.80
2018-06-15T20:03:22.894Z,16.80
2018-06-15T20:05:51.500Z,16.70
2018-06-15T20:08:19.946Z,16.60
2018-06-15T20:10:48.518Z,16.60
2018-06-15T20:13:17.237Z,16.60
2018-06-15T20:15:45.890Z,16.50
2018-06-15T20:18:14.485Z,16.40
2018-06-15T20:20:42.964Z,16.40
2018-06-15T20:23:11.435Z,16.40
2018-06-15T20:25:40.071Z,16.30
2018-06-15T20:28:08.675Z,16.30
2018-06-15T20:30:37.245Z,16.20
2018-06-15T20:33:05.769Z,16.10
2018-06-15T20:35:34.418Z,16.10
2018-06-15T20:38:02.908Z,16.00
2018-06-15T20:40:31.413Z,16.00
2018-06-15T20:43:00.067Z,15.90
2018-06-15T20:45:28.789Z,15.90
2018-06-15T20:47:57.281Z,15.80
2018-06-15T20:50:25.843Z,15.80
2018-06-15T20:52:54.404Z,15.80
2018-06-15T20:55:23.016Z,15.70
2018-06-15T20:57:51.527Z,15.70
2018-06-15T21:00:20.129Z,15.70
2018-06-15T21:02:48.582Z,15.60
2018-06-15T21:05:17.131Z,15.50
2018-06-15T21:07:45.688Z,15.50
2018-06-15T21:10:14.226Z,15.50
2018-06-15T21:12:42.727Z,15.40
2018-06-15T21:15:11.208Z,15.40
2018-06-15T21:17:39.786Z,15.30
2018-06-15T21:20:08.279Z,15.30
2018-06-15T21:22:37.314Z,15.30
2018-06-15T21:25:06.361Z,15.20
2018-06-15T21:27:34.967Z,15.20
2018-06-15T21:30:03.637Z,15.20
2018-06-15T21:32:32.192Z,15.10
2018-06-15T21:37:29.199Z,15.00
2018-06-15T21:39:57.843Z,15.00
2018-06-15T21:42:26.648Z,15.00
2018-06-15T21:44:55.084Z,15.00
2018-06-15T21:47:23.579Z,15.00
2018-06-15T21:49:52.278Z,15.00
2018-06-15T21:52:20.875Z,14.80
2018-06-15T21:54:49.401Z,14.70
2018-06-15T21:57:17.890Z,14.70
2018-06-15T21:59:46.475Z,14.60
2018-06-15T22:02:15.102Z,14.60
2018-06-15T22:04:43.647Z,14.60
2018-06-15T22:07:12.263Z,14.60
2018-06-15T22:09:40.766Z,14.50
2018-06-15T22:12:09.310Z,14.50
2018-06-15T22:14:37.909Z,14.50
2018-06-15T22:17:06.412Z,14.50
2018-06-15T22:19:34.952Z,14.50
2018-06-15T22:22:03.534Z,14.40
2018-06-15T22:24:32.102Z,14.40
2018-06-15T22:27:00.620Z,14.40
2018-06-15T22:29:29.090Z,14.30
2018-06-15T22:31:57.740Z,14.30
2018-06-15T22:34:26.338Z,14.30
2018-06-15T22:36:54.814Z,14.30
2018-06-15T22:39:23.368Z,14.30
2018-06-15T22:41:52.097Z,14.30
2018-06-15T22:44:20.619Z,14.20
2018-06-15T22:46:49.288Z,14.20
2018-06-15T22:49:17.936Z,14.20
2018-06-15T22:51:46.419Z,14.20
2018-06-15T22:54:15.061Z,14.20
2018-06-15T22:56:43.660Z,14.10
2018-06-15T22:59:12.122Z,14.10
2018-06-15T23:01:40.676Z,14.10
2018-06-15T23:04:09.208Z,14.10
2018-06-15T23:06:37.679Z,14.00
2018-06-15T23:09:08.141Z,14.10
2018-06-15T23:11:36.628Z,14.10
2018-06-15T23:14:05.410Z,14.00
2018-06-15T23:16:34.145Z,14.00
2018-06-15T23:19:02.628Z,14.00
2018-06-15T23:21:31.315Z,14.00
2018-06-15T23:23:59.817Z,13.90
2018-06-15T23:26:28.328Z,13.90
2018-06-15T23:28:56.941Z,13.80
2018-06-15T23:31:25.462Z,13.80
2018-06-15T23:33:53.904Z,13.70
2018-06-15T23:36:22.380Z,13.70
2018-06-15T23:38:50.861Z,13.60
2018-06-15T23:41:19.353Z,13.50
2018-06-15T23:43:47.832Z,13.50
2018-06-15T23:46:16.323Z,13.50
2018-06-15T23:48:44.817Z,13.40
2018-06-15T23:51:13.415Z,13.40
2018-06-15T23:53:42.085Z,13.40
2018-06-15T23:56:10.672Z,13.50
2018-06-15T23:58:39.131Z,13.40
